createdAt,value
2023-05-21T00:00:30.481Z,85.10
2023-05-21T00:02:59.180Z,86.14
2023-05-21T00:05:26.886Z,85.70
2023-05-21T00:07:55.006Z,85.06
2023-05-21T00:10:22.551Z,84.80
2023-05-21T00:12:49.847Z,85.58
2023-05-21T00:15:17.098Z,85.91
2023-05-21T00:17:46.123Z,85.58
2023-05-21T00:20:13.525Z,84.84
2023-05-21T00:22:42.529Z,86.10
2023-05-21T00:25:11.340Z,86.32
2023-05-21T00:27:38.540Z,85.83
2023-05-21T00:30:07.459Z,85.62
2023-05-21T00:32:34.685Z,86.53
2023-05-21T00:35:02.979Z,86.44
2023-05-21T00:37:32.962Z,86.37
2023-05-21T00:40:01.772Z,86.39
2023-05-21T00:42:30.763Z,85.33
2023-05-21T00:44:58.319Z,86.31
2023-05-21T00:47:29.686Z,86.43
2023-05-21T00:49:57.132Z,88.53
2023-05-21T00:52:26.949Z,88.75
2023-05-21T00:54:55.222Z,88.61
2023-05-21T00:57:25.427Z,88.09
2023-05-21T00:59:54.219Z,89.04
2023-05-21T01:02:24.322Z,89.49
2023-05-21T01:04:56.067Z,90.77
2023-05-21T01:07:23.397Z,89.39
2023-05-21T01:09:50.933Z,89.52
2023-05-21T01:12:19.838Z,89.66
2023-05-21T01:14:48.101Z,89.60
2023-05-21T01:17:16.286Z,89.97
2023-05-21T01:19:44.755Z,89.45
2023-05-21T01:22:14.373Z,88.65
2023-05-21T01:24:47.710Z,89.34
2023-05-21T01:27:14.993Z,88.33
2023-05-21T01:29:42.524Z,89.21
2023-05-21T01:32:30.961Z,89.21
2023-05-21T01:35:20.865Z,88.54
2023-05-21T01:37:53.131Z,88.66
2023-05-21T01:40:29.390Z,89.72
2023-05-21T01:42:57.914Z,89.30
2023-05-21T01:45:26.646Z,90.55
2023-05-21T01:47:55.880Z,90.10
2023-05-21T01:50:27.395Z,90.21
2023-05-21T01:52:57.038Z,88.58
2023-05-21T01:55:24.957Z,88.85
2023-05-21T01:57:54.184Z,88.37
2023-05-21T02:00:23.172Z,89.50
2023-05-21T02:02:50.813Z,89.86
2023-05-21T02:05:18.649Z,90.40
2023-05-21T02:07:47.428Z,90.40
2023-05-21T02:10:14.924Z,90.55
2023-05-21T02:12:43.327Z,91.71
2023-05-21T02:15:11.011Z,91.62
2023-05-21T02:17:38.943Z,91.27
2023-05-21T02:20:13.877Z,91.64
2023-05-21T02:22:46.227Z,91.35
2023-05-21T02:25:16.105Z,90.75
2023-05-21T02:27:44.554Z,91.60
2023-05-21T02:30:13.508Z,90.74
2023-05-21T02:32:42.560Z,91.81
2023-05-21T02:35:11.695Z,91.47
2023-05-21T02:37:44.122Z,91.74
2023-05-21T02:40:12.259Z,91.83
2023-05-21T02:42:41.504Z,91.07
2023-05-21T02:45:13.762Z,91.09
2023-05-21T02:47:43.354Z,89.80
2023-05-21T02:50:10.807Z,90.49
2023-05-21T02:52:49.315Z,89.81
2023-05-21T02:55:16.782Z,90.56
2023-05-21T02:57:43.992Z,90.52
2023-05-21T03:00:11.919Z,90.97
2023-05-21T03:02:40.869Z,91.74
2023-05-21T03:05:09.378Z,92.21
2023-05-21T03:07:36.598Z,92.63
2023-05-21T03:10:04.169Z,92.57
2023-05-21T03:12:31.685Z,92.72
2023-05-21T03:15:23.835Z,92.97
2023-05-21T03:17:54.176Z,93.11
2023-05-21T03:20:21.596Z,92.75
2023-05-21T03:22:49.964Z,91.39
2023-05-21T03:25:17.822Z,90.99
2023-05-21T03:27:45.684Z,91.14
2023-05-21T03:30:29.225Z,91.07
2023-05-21T03:33:16.490Z,89.47
2023-05-21T03:35:44.323Z,89.46
2023-05-21T03:38:11.676Z,90.68
2023-05-21T03:40:38.925Z,90.32
2023-05-21T03:43:06.200Z,91.44
2023-05-21T03:45:33.727Z,90.81
2023-05-21T03:48:21.326Z,91.51
2023-05-21T03:50:48.714Z,91.17
2023-05-21T03:53:15.966Z,91.09
2023-05-21T03:55:44.517Z,89.95
2023-05-21T03:58:11.837Z,90.27
2023-05-21T04:00:39.364Z,90.23
2023-05-21T04:03:07.468Z,89.72
2023-05-21T04:05:35.177Z,90.04
2023-05-21T04:08:04.760Z,90.22
2023-05-21T04:10:32.044Z,89.37
2023-05-21T04:12:59.240Z,89.07
2023-05-21T04:15:27.695Z,88.28
2023-05-21T04:17:55.719Z,87.84
2023-05-21T04:20:23.321Z,87.13
2023-05-21T04:22:51.799Z,87.30
2023-05-21T04:25:20.460Z,86.72
2023-05-21T04:27:50.172Z,87.15
2023-05-21T04:30:20.080Z,87.99
2023-05-21T04:32:48.303Z,88.13
2023-05-21T04:35:16.101Z,87.65
2023-05-21T04:37:45.852Z,87.14
2023-05-21T04:40:18.468Z,86.58
2023-05-21T04:42:46.764Z,86.63
2023-05-21T04:45:14.185Z,85.77
2023-05-21T04:47:44.492Z,84.18
2023-05-21T04:50:12.460Z,83.06
2023-05-21T04:52:40.350Z,79.90
2023-05-21T04:55:08.225Z,77.14
2023-05-21T04:57:35.824Z,75.87
2023-05-21T05:00:06.495Z,73.33
2023-05-21T05:02:39.362Z,71.62
2023-05-21T05:05:06.808Z,70.75
2023-05-21T05:07:33.973Z,68.52
2023-05-21T05:10:01.204Z,66.82
2023-05-21T05:12:28.506Z,66.41
2023-05-21T05:14:55.935Z,65.66
2023-05-21T05:17:24.689Z,64.31
2023-05-21T05:19:53.187Z,65.06
2023-05-21T05:22:20.699Z,64.99
2023-05-21T05:24:48.089Z,68.51
2023-05-21T05:27:15.307Z,68.78
2023-05-21T05:29:42.518Z,68.08
2023-05-21T05:32:09.959Z,66.96
2023-05-21T05:34:37.905Z,66.79
2023-05-21T05:37:05.861Z,67.11
2023-05-21T05:39:33.691Z,67.86
2023-05-21T05:42:01.521Z,68.26
2023-05-21T05:44:28.871Z,69.82
2023-05-21T05:46:56.204Z,70.73
2023-05-21T05:49:23.390Z,71.54
2023-05-21T05:51:50.637Z,71.14
2023-05-21T05:54:18.046Z,70.75
2023-05-21T05:56:45.280Z,71.61
2023-05-21T05:59:12.766Z,71.12
2023-05-21T06:01:47.158Z,72.37
2023-05-21T06:04:14.571Z,72.73
2023-05-21T06:06:42.161Z,73.31
2023-05-21T06:09:09.902Z,73.14
2023-05-21T06:11:37.099Z,73.92
2023-05-21T06:14:04.531Z,74.23
2023-05-21T06:16:32.005Z,73.66
2023-05-21T06:18:59.715Z,73.67
2023-05-21T06:21:27.281Z,72.62
2023-05-21T06:23:54.693Z,72.18
2023-05-21T06:26:22.105Z,72.51
2023-05-21T06:28:51.135Z,72.96
2023-05-21T06:31:19.044Z,71.17
2023-05-21T06:33:46.467Z,72.68
2023-05-21T06:36:14.106Z,71.70
2023-05-21T06:38:42.780Z,70.40
2023-05-21T06:41:09.996Z,66.28
2023-05-21T06:43:53.403Z,63.22
2023-05-21T06:46:32.669Z,62.56
2023-05-21T06:49:01.471Z,65.48
2023-05-21T06:51:28.684Z,64.15
2023-05-21T06:53:56.238Z,62.13
2023-05-21T06:56:23.638Z,64.04
2023-05-21T06:58:54.517Z,60.53
2023-05-21T07:01:22.984Z,58.47
2023-05-21T07:03:50.256Z,55.82
2023-05-21T07:06:17.531Z,53.96
2023-05-21T07:08:44.907Z,54.39
2023-05-21T07:11:12.204Z,55.44
2023-05-21T07:13:39.425Z,53.95
2023-05-21T07:16:07.255Z,54.31
2023-05-21T07:18:34.504Z,54.03
2023-05-21T07:21:01.668Z,53.01
2023-05-21T07:23:29.258Z,50.66
2023-05-21T07:25:56.522Z,48.82
2023-05-21T07:28:23.863Z,47.39
2023-05-21T07:30:51.094Z,48.12
2023-05-21T07:33:23.051Z,51.50
2023-05-21T07:35:52.476Z,54.98
2023-05-21T07:38:19.668Z,51.07
2023-05-21T07:40:47.266Z,50.37
2023-05-21T07:43:15.558Z,49.64
2023-05-21T07:45:42.877Z,52.47
2023-05-21T07:48:10.234Z,50.32
2023-05-21T07:50:43.517Z,49.18
2023-05-21T07:53:10.990Z,46.51
2023-05-21T07:55:38.578Z,47.26
2023-05-21T07:58:06.398Z,48.41
2023-05-21T08:00:43.932Z,45.28
2023-05-21T08:03:12.430Z,44.56
2023-05-21T08:05:39.739Z,45.19
2023-05-21T08:08:07.030Z,46.69
2023-05-21T08:10:35.003Z,46.68
2023-05-21T08:13:02.318Z,45.85
2023-05-21T08:15:29.580Z,44.73
2023-05-21T08:17:56.953Z,44.29
2023-05-21T08:20:26.312Z,43.78
2023-05-21T08:22:53.778Z,42.26
2023-05-21T08:25:21.068Z,41.96
2023-05-21T08:27:49.112Z,43.46
2023-05-21T08:30:17.705Z,39.43
2023-05-21T08:32:45.207Z,39.52
2023-05-21T08:35:12.701Z,41.94
2023-05-21T08:38:05.345Z,41.63
2023-05-21T08:40:47.878Z,37.96
2023-05-21T08:43:16.571Z,40.01
2023-05-21T08:45:53.179Z,38.81
2023-05-21T08:48:25.185Z,39.29
2023-05-21T08:50:54.162Z,39.03
2023-05-21T08:53:29.301Z,39.19
2023-05-21T08:55:57.796Z,39.80
2023-05-21T08:58:35.220Z,41.53
2023-05-21T09:01:04.705Z,41.72
2023-05-21T09:03:33.077Z,42.78
2023-05-21T09:06:00.960Z,44.12
2023-05-21T09:08:35.755Z,43.48
2023-05-21T09:11:23.322Z,44.42
2023-05-21T09:13:57.811Z,44.58
2023-05-21T09:16:32.363Z,46.20
2023-05-21T09:19:03.020Z,47.54
2023-05-21T09:21:34.301Z,50.27
2023-05-21T09:24:11.129Z,49.89
2023-05-21T09:26:43.569Z,51.10
2023-05-21T09:29:13.412Z,51.68
2023-05-21T09:31:46.927Z,50.96
2023-05-21T09:34:15.029Z,51.49
2023-05-21T09:36:47.170Z,50.96
2023-05-21T09:39:36.173Z,49.19
2023-05-21T09:42:04.938Z,50.57
2023-05-21T09:44:32.626Z,49.56
2023-05-21T09:47:00.227Z,50.44
2023-05-21T09:49:28.161Z,50.11
2023-05-21T09:52:00.251Z,51.00
2023-05-21T09:54:32.412Z,49.60
2023-05-21T09:57:03.119Z,49.32
2023-05-21T09:59:38.806Z,50.01
2023-05-21T10:02:21.063Z,49.32
2023-05-21T10:04:50.277Z,49.36
2023-05-21T10:07:27.622Z,48.72
2023-05-21T10:09:57.135Z,47.72
2023-05-21T10:12:25.366Z,49.60
2023-05-21T10:15:01.422Z,50.31
2023-05-21T10:17:30.633Z,50.16
2023-05-21T10:19:59.800Z,48.95
2023-05-21T10:22:28.165Z,50.54
2023-05-21T10:24:56.499Z,48.93
2023-05-21T10:27:23.818Z,49.12
2023-05-21T10:29:51.819Z,48.20
2023-05-21T10:32:22.552Z,47.20
2023-05-21T10:34:53.384Z,48.16
2023-05-21T10:37:24.470Z,48.07
2023-05-21T10:39:51.794Z,48.00
2023-05-21T10:42:24.779Z,48.53
2023-05-21T10:45:01.306Z,47.78
2023-05-21T10:47:54.888Z,47.43
2023-05-21T10:50:40.864Z,46.92
2023-05-21T10:53:23.379Z,49.39
2023-05-21T10:56:25.504Z,46.86
2023-05-21T10:59:15.423Z,49.00
2023-05-21T11:01:42.881Z,49.22
2023-05-21T11:04:12.302Z,47.39
2023-05-21T11:06:39.859Z,48.49
2023-05-21T11:09:14.124Z,48.66
2023-05-21T11:11:58.269Z,48.02
2023-05-21T11:14:39.588Z,47.80
2023-05-21T11:17:16.362Z,47.94
2023-05-21T11:19:51.537Z,48.68
2023-05-21T11:22:26.592Z,48.11
2023-05-21T11:24:55.573Z,48.04
2023-05-21T11:27:33.768Z,48.00
2023-05-21T11:30:05.005Z,48.22
2023-05-21T11:32:32.315Z,48.15
2023-05-21T11:35:02.646Z,48.22
2023-05-21T11:37:31.495Z,47.74
2023-05-21T11:40:16.775Z,45.60
2023-05-21T11:42:48.597Z,45.92
2023-05-21T11:45:21.156Z,47.15
2023-05-21T11:47:49.827Z,47.57
2023-05-21T11:50:18.274Z,48.25
2023-05-21T11:52:45.727Z,47.83
2023-05-21T11:55:15.457Z,45.77
2023-05-21T11:57:44.745Z,45.01
2023-05-21T12:00:16.760Z,46.75
2023-05-21T12:02:50.098Z,46.27
2023-05-21T12:05:18.084Z,46.18
2023-05-21T12:07:50.525Z,45.59
2023-05-21T12:10:21.832Z,46.20
2023-05-21T12:12:55.895Z,45.73
2023-05-21T12:15:26.088Z,46.52
2023-05-21T12:17:54.871Z,46.25
2023-05-21T12:20:22.390Z,45.99
2023-05-21T12:22:50.561Z,46.62
2023-05-21T12:25:20.217Z,46.96
2023-05-21T12:27:50.314Z,45.44
2023-05-21T12:30:17.587Z,45.98
2023-05-21T12:32:44.933Z,46.56
2023-05-21T12:35:24.899Z,46.53
2023-05-21T12:37:52.637Z,45.64
2023-05-21T12:40:20.075Z,45.34
2023-05-21T12:42:47.465Z,43.47
2023-05-21T12:45:15.027Z,42.37
2023-05-21T12:47:48.964Z,45.08
2023-05-21T12:50:21.138Z,45.81
2023-05-21T12:52:48.528Z,45.66
2023-05-21T12:55:16.753Z,45.03
2023-05-21T12:57:44.063Z,45.88
2023-05-21T13:00:11.875Z,46.12
2023-05-21T13:02:41.159Z,46.05
2023-05-21T13:05:10.641Z,45.85
2023-05-21T13:07:39.842Z,44.25
2023-05-21T13:10:07.826Z,44.68
2023-05-21T13:12:35.335Z,44.32
2023-05-21T13:15:04.214Z,44.65
2023-05-21T13:17:31.764Z,44.90
2023-05-21T13:20:09.136Z,45.07
2023-05-21T13:22:46.680Z,45.72
2023-05-21T13:25:16.615Z,45.49
2023-05-21T13:27:44.463Z,45.63
2023-05-21T13:30:11.887Z,45.16
2023-05-21T13:32:40.381Z,47.39
2023-05-21T13:35:08.080Z,45.45
2023-05-21T13:37:38.619Z,45.59
2023-05-21T13:40:07.894Z,44.57
2023-05-21T13:42:35.675Z,43.81
2023-05-21T13:45:03.011Z,44.87
2023-05-21T13:47:30.330Z,43.21
2023-05-21T13:49:57.663Z,42.89
2023-05-21T13:52:25.004Z,43.26
2023-05-21T13:54:52.316Z,43.51
2023-05-21T13:57:19.538Z,43.27
2023-05-21T13:59:47.128Z,41.70
2023-05-21T14:02:14.442Z,41.75
2023-05-21T14:04:41.680Z,43.06
2023-05-21T14:07:09.824Z,41.30
2023-05-21T14:09:37.318Z,41.38
2023-05-21T14:12:06.593Z,42.40
2023-05-21T14:14:34.893Z,42.82
2023-05-21T14:17:02.134Z,42.37
2023-05-21T14:19:29.580Z,43.00
2023-05-21T14:21:57.774Z,43.42
2023-05-21T14:24:25.024Z,42.55
2023-05-21T14:26:52.233Z,42.13
2023-05-21T14:29:19.564Z,42.34
2023-05-21T14:31:46.876Z,42.53
2023-05-21T14:34:14.155Z,42.91
2023-05-21T14:36:41.406Z,41.22
2023-05-21T14:39:08.717Z,42.93
2023-05-21T14:41:39.535Z,42.28
2023-05-21T14:44:06.817Z,42.13
2023-05-21T14:46:34.361Z,42.86
2023-05-21T14:49:03.363Z,43.31
2023-05-21T14:51:31.605Z,42.59
2023-05-21T14:53:59.197Z,42.46
2023-05-21T14:56:27.595Z,42.71
2023-05-21T14:58:55.080Z,43.36
2023-05-21T15:01:22.497Z,42.14
2023-05-21T15:03:50.097Z,42.62
2023-05-21T15:06:17.417Z,42.88
2023-05-21T15:08:44.663Z,42.43
2023-05-21T15:11:11.870Z,42.87
2023-05-21T15:13:39.279Z,44.50
2023-05-21T15:16:06.832Z,43.39
2023-05-21T15:18:34.188Z,43.38
2023-05-21T15:21:01.495Z,42.02
2023-05-21T15:23:28.863Z,42.58
2023-05-21T15:25:56.072Z,43.07
2023-05-21T15:28:23.384Z,42.87
2023-05-21T15:30:50.579Z,43.27
2023-05-21T15:33:18.033Z,42.84
2023-05-21T15:35:45.743Z,43.26
2023-05-21T15:38:13.184Z,41.90
2023-05-21T15:40:43.484Z,41.94
2023-05-21T15:43:10.851Z,42.87
2023-05-21T15:45:38.781Z,43.02
2023-05-21T15:48:07.071Z,43.43
2023-05-21T15:50:38.217Z,43.98
2023-05-21T15:53:05.607Z,43.14
2023-05-21T15:55:33.469Z,42.38
2023-05-21T15:58:02.462Z,47.20
2023-05-21T16:00:29.958Z,49.44
2023-05-21T16:02:57.381Z,50.33
2023-05-21T16:05:24.828Z,50.94
2023-05-21T16:07:52.112Z,51.13
2023-05-21T16:10:19.270Z,51.33
2023-05-21T16:12:46.929Z,51.29
2023-05-21T16:15:14.119Z,51.65
2023-05-21T16:17:41.393Z,52.07
2023-05-21T16:20:08.909Z,52.52
2023-05-21T16:22:36.134Z,52.92
2023-05-21T16:25:03.460Z,52.96
2023-05-21T16:27:30.784Z,53.39
2023-05-21T16:29:58.520Z,53.01
2023-05-21T16:32:28.512Z,53.14
2023-05-21T16:34:55.964Z,53.34
2023-05-21T16:37:23.130Z,53.04
2023-05-21T16:39:50.359Z,52.68
2023-05-21T16:42:18.550Z,52.34
2023-05-21T16:44:45.869Z,52.92
2023-05-21T16:47:13.103Z,53.30
2023-05-21T16:49:41.087Z,53.41
2023-05-21T16:52:08.278Z,53.85
2023-05-21T16:54:35.719Z,54.28
2023-05-21T16:57:02.953Z,54.71
2023-05-21T16:59:30.184Z,55.61
2023-05-21T17:01:57.496Z,54.98
2023-05-21T17:04:24.737Z,55.30
2023-05-21T17:06:51.962Z,54.89
2023-05-21T17:09:19.152Z,54.13
2023-05-21T17:11:46.398Z,55.49
2023-05-21T17:14:23.273Z,63.66
2023-05-21T17:17:00.059Z,67.21
2023-05-21T17:19:27.355Z,70.35
2023-05-21T17:21:55.896Z,73.92
2023-05-21T17:24:23.090Z,71.57
2023-05-21T17:26:50.489Z,77.73
2023-05-21T17:29:18.850Z,77.83
2023-05-21T17:31:46.236Z,75.36
2023-05-21T17:34:13.511Z,76.26
2023-05-21T17:36:41.065Z,77.32
2023-05-21T17:39:08.328Z,77.58
2023-05-21T17:41:35.792Z,79.47
2023-05-21T17:44:02.990Z,82.48
2023-05-21T17:46:30.259Z,83.48
2023-05-21T17:48:57.428Z,83.90
2023-05-21T17:51:24.784Z,83.56
2023-05-21T17:53:51.964Z,84.69
2023-05-21T17:56:19.180Z,83.79
2023-05-21T17:58:46.371Z,83.56
2023-05-21T18:01:13.645Z,82.54
2023-05-21T18:03:40.887Z,84.48
2023-05-21T18:06:09.552Z,83.77
2023-05-21T18:08:36.984Z,83.03
2023-05-21T18:11:04.346Z,84.22
2023-05-21T18:13:31.676Z,85.13
2023-05-21T18:15:59.058Z,86.07
2023-05-21T18:18:26.272Z,85.65
2023-05-21T18:20:53.793Z,84.49
2023-05-21T18:23:21.056Z,84.35
2023-05-21T18:25:48.383Z,85.66
2023-05-21T18:28:15.655Z,86.05
2023-05-21T18:30:42.970Z,85.64
2023-05-21T18:33:11.167Z,86.76
2023-05-21T18:35:38.507Z,88.11
2023-05-21T18:38:09.842Z,87.31
2023-05-21T18:40:37.929Z,87.91
2023-05-21T18:43:06.440Z,88.79
2023-05-21T18:45:34.521Z,88.60
2023-05-21T18:48:03.168Z,88.02
2023-05-21T18:50:31.781Z,88.28
2023-05-21T18:52:59.053Z,88.65
2023-05-21T18:55:26.457Z,87.80
2023-05-21T18:57:54.945Z,87.11
2023-05-21T19:00:22.356Z,87.69
2023-05-21T19:02:50.211Z,88.21
2023-05-21T19:05:17.612Z,89.25
2023-05-21T19:07:44.948Z,89.87
2023-05-21T19:10:12.716Z,88.69
2023-05-21T19:12:41.841Z,89.57
2023-05-21T19:15:10.140Z,89.07
2023-05-21T19:17:39.072Z,89.72
2023-05-21T19:20:07.908Z,90.00
2023-05-21T19:22:37.082Z,91.00
2023-05-21T19:25:04.747Z,91.12
2023-05-21T19:27:32.089Z,89.90
2023-05-21T19:29:59.352Z,90.10
2023-05-21T19:32:26.515Z,89.59
2023-05-21T19:34:54.696Z,89.22
2023-05-21T19:37:22.294Z,89.27
2023-05-21T19:39:50.311Z,89.35
2023-05-21T19:42:19.870Z,90.82
2023-05-21T19:44:47.244Z,90.32
2023-05-21T19:47:14.693Z,90.07
2023-05-21T19:49:41.965Z,89.89
2023-05-21T19:52:10.444Z,89.62
2023-05-21T19:54:37.699Z,90.53
2023-05-21T19:57:05.193Z,90.45
2023-05-21T19:59:32.609Z,91.25
2023-05-21T20:01:59.786Z,91.20
2023-05-21T20:04:27.603Z,90.26
2023-05-21T20:06:54.870Z,90.57
2023-05-21T20:09:22.158Z,90.86
2023-05-21T20:11:49.436Z,89.52
2023-05-21T20:14:16.702Z,87.95
2023-05-21T20:16:46.960Z,85.28
2023-05-21T20:19:15.209Z,82.31
2023-05-21T20:21:42.817Z,81.77
2023-05-21T20:24:11.310Z,81.40
2023-05-21T20:26:39.819Z,82.83
2023-05-21T20:29:08.097Z,82.78
2023-05-21T20:31:35.914Z,81.37
2023-05-21T20:34:10.620Z,81.23
2023-05-21T20:36:38.079Z,81.33
2023-05-21T20:39:06.260Z,82.94
2023-05-21T20:41:37.692Z,82.92
2023-05-21T20:44:05.800Z,83.82
2023-05-21T20:46:34.262Z,83.18
2023-05-21T20:49:01.636Z,84.29
2023-05-21T20:51:28.883Z,80.99
2023-05-21T20:53:57.081Z,80.11
2023-05-21T20:56:40.649Z,80.91
2023-05-21T20:59:09.956Z,79.79
2023-05-21T21:01:39.280Z,80.45
2023-05-21T21:04:06.733Z,80.84
2023-05-21T21:06:34.877Z,81.07
2023-05-21T21:09:02.083Z,81.55
2023-05-21T21:11:29.300Z,81.39
2023-05-21T21:13:56.596Z,81.18
2023-05-21T21:16:23.802Z,81.76
2023-05-21T21:18:51.174Z,81.84
2023-05-21T21:21:18.442Z,82.71
2023-05-21T21:23:45.859Z,81.35
2023-05-21T21:26:13.008Z,81.86
2023-05-21T21:28:40.249Z,81.89
2023-05-21T21:31:07.514Z,82.01
2023-05-21T21:33:34.823Z,82.55
2023-05-21T21:36:02.085Z,81.12
2023-05-21T21:38:29.368Z,81.33
2023-05-21T21:40:56.658Z,82.66
2023-05-21T21:43:23.868Z,81.62
2023-05-21T21:45:51.474Z,81.13
2023-05-21T21:48:18.805Z,81.24
2023-05-21T21:50:46.051Z,81.32
2023-05-21T21:53:14.019Z,82.57
2023-05-21T21:55:42.310Z,82.50
2023-05-21T21:58:09.735Z,83.89
2023-05-21T22:00:37.340Z,82.54
2023-05-21T22:03:04.965Z,83.16
2023-05-21T22:05:32.699Z,83.51
2023-05-21T22:08:00.004Z,84.74
2023-05-21T22:10:27.223Z,83.34
2023-05-21T22:12:54.518Z,82.51
2023-05-21T22:15:28.639Z,83.54
2023-05-21T22:17:56.089Z,83.13
2023-05-21T22:20:23.345Z,83.44
2023-05-21T22:22:50.624Z,84.51
2023-05-21T22:25:18.056Z,82.23
2023-05-21T22:27:45.371Z,83.69
2023-05-21T22:30:12.875Z,84.94
2023-05-21T22:32:40.258Z,83.80
2023-05-21T22:35:08.181Z,83.51
2023-05-21T22:37:37.312Z,83.26
2023-05-21T22:40:06.876Z,83.22
2023-05-21T22:42:34.920Z,84.37
2023-05-21T22:45:02.334Z,83.22
2023-05-21T22:47:29.628Z,84.37
2023-05-21T22:49:58.198Z,83.41
2023-05-21T22:52:25.611Z,83.85
2023-05-21T22:54:53.554Z,84.28
2023-05-21T22:57:20.949Z,84.69
2023-05-21T22:59:48.162Z,84.70
2023-05-21T23:02:16.518Z,85.20
2023-05-21T23:04:44.721Z,84.65
2023-05-21T23:07:12.628Z,85.85
2023-05-21T23:09:39.891Z,85.28
2023-05-21T23:12:08.226Z,86.37
2023-05-21T23:14:35.400Z,85.07
2023-05-21T23:17:02.679Z,87.26
2023-05-21T23:19:30.197Z,85.15
2023-05-21T23:21:57.521Z,84.68
2023-05-21T23:24:24.681Z,86.58
2023-05-21T23:26:52.645Z,85.37
2023-05-21T23:29:19.851Z,85.18
2023-05-21T23:31:47.957Z,84.86
2023-05-21T23:34:15.221Z,85.30
2023-05-21T23:36:42.541Z,85.35
2023-05-21T23:39:09.783Z,86.13
2023-05-21T23:41:37.396Z,85.90
2023-05-21T23:44:04.718Z,86.81
2023-05-21T23:46:32.022Z,87.50
2023-05-21T23:48:59.187Z,86.90
2023-05-21T23:51:26.502Z,88.59
2023-05-21T23:53:54.217Z,87.50
2023-05-21T23:56:21.424Z,87.02
2023-05-21T23:58:50.129Z,86.90
